DLH2GY EFTU-ENZV
Flight info
| Callsign | DLH2GY |
|---|---|
| Flight time | N/A |
| Altitude | 38000 |
| Route | OTKIL DCT EVLAN DCT ELVOM M125 IDIPI |
| Aircraft | A320/M-SDE3FGHIRWY/LB1 |
Departure
| Time | 2026-05-06 15:48 |
|---|---|
| Airport | Turku Airport (EFTU) |
Arrival
| Time | N/A |
|---|---|
| Airport | Stavanger Airport, Sola (ENZV) |
| Time | Latitude | Longitude | Altitude | Speed | Heading |
|---|---|---|---|---|---|
| 2026-05-06 15:34 | 60.51176 | 22.27339 | 175 ft | 0 kts | 149° |
| 2026-05-06 15:41 | 60.51184 | 22.27329 | 173 ft | 3 kts | 149° |
| 2026-05-06 15:42 | 60.51177 | 22.27291 | 172 ft | 11 kts | 276° |
| 2026-05-06 15:42 | 60.51233 | 22.27229 | 162 ft | 16 kts | 15° |
| 2026-05-06 15:42 | 60.51306 | 22.27317 | 158 ft | 10 kts | 33° |
| 2026-05-06 15:42 | 60.51339 | 22.27438 | 156 ft | 10 kts | 84° |
| 2026-05-06 15:43 | 60.51345 | 22.27588 | 154 ft | 11 kts | 86° |
| 2026-05-06 15:43 | 60.51353 | 22.27738 | 154 ft | 10 kts | 84° |
| 2026-05-06 15:43 | 60.51359 | 22.27885 | 152 ft | 11 kts | 85° |
| 2026-05-06 15:43 | 60.51366 | 22.28051 | 149 ft | 13 kts | 85° |
| 2026-05-06 15:44 | 60.51376 | 22.28233 | 147 ft | 13 kts | 84° |
| 2026-05-06 15:44 | 60.51384 | 22.28414 | 145 ft | 10 kts | 86° |
| 2026-05-06 15:44 | 60.51404 | 22.28526 | 146 ft | 5 kts | 38° |
| 2026-05-06 15:44 | 60.51417 | 22.28535 | 147 ft | 0 kts | 16° |
| 2026-05-06 15:46 | 60.51444 | 22.28540 | 148 ft | 6 kts | 356° |
| 2026-05-06 15:46 | 60.51479 | 22.28534 | 148 ft | 7 kts | 355° |
| 2026-05-06 15:46 | 60.51513 | 22.28485 | 149 ft | 5 kts | 276° |
| 2026-05-06 15:47 | 60.51507 | 22.28407 | 149 ft | 12 kts | 263° |
| 2026-05-06 15:47 | 60.51478 | 22.27776 | 150 ft | 82 kts | 265° |
| 2026-05-06 15:47 | 60.51410 | 22.26208 | 150 ft | 141 kts | 265° |
| 2026-05-06 15:47 | 60.51315 | 22.24060 | 592 ft | 152 kts | 267° |
| 2026-05-06 15:48 | 60.51226 | 22.21907 | 1381 ft | 152 kts | 267° |
| 2026-05-06 15:48 | 60.51131 | 22.19623 | 1842 ft | 173 kts | 266° |
| 2026-05-06 15:48 | 60.51020 | 22.17041 | 2287 ft | 191 kts | 265° |
| 2026-05-06 15:48 | 60.50899 | 22.14350 | 3028 ft | 195 kts | 265° |
| 2026-05-06 15:49 | 60.50770 | 22.11564 | 3742 ft | 202 kts | 265° |
| 2026-05-06 15:49 | 60.50637 | 22.08567 | 4180 ft | 225 kts | 265° |
| 2026-05-06 15:49 | 60.50495 | 22.05265 | 4702 ft | 248 kts | 265° |
| 2026-05-06 15:49 | 60.50349 | 22.01653 | 5484 ft | 258 kts | 265° |
| 2026-05-06 15:50 | 60.50201 | 21.98003 | 6529 ft | 261 kts | 265° |
| 2026-05-06 15:50 | 60.50047 | 21.94309 | 7464 ft | 263 kts | 265° |
| 2026-05-06 15:50 | 60.49892 | 21.90642 | 8402 ft | 266 kts | 265° |
| 2026-05-06 15:50 | 60.49728 | 21.86889 | 9377 ft | 268 kts | 265° |
| 2026-05-06 15:51 | 60.49566 | 21.83113 | 10328 ft | 270 kts | 265° |
| 2026-05-06 15:51 | 60.49414 | 21.79182 | 10756 ft | 290 kts | 266° |
| 2026-05-06 15:51 | 60.49250 | 21.74993 | 11315 ft | 302 kts | 266° |
| 2026-05-06 15:51 | 60.49068 | 21.70691 | 12109 ft | 306 kts | 266° |
| 2026-05-06 15:52 | 60.48875 | 21.66439 | 13049 ft | 306 kts | 266° |
| 2026-05-06 15:52 | 60.48675 | 21.62138 | 13943 ft | 306 kts | 266° |
| 2026-05-06 15:52 | 60.48474 | 21.57823 | 14738 ft | 307 kts | 265° |
| 2026-05-06 15:52 | 60.48273 | 21.53505 | 15358 ft | 313 kts | 265° |
| 2026-05-06 15:53 | 60.48062 | 21.49137 | 16229 ft | 310 kts | 264° |
| 2026-05-06 15:53 | 60.47855 | 21.44753 | 16928 ft | 313 kts | 264° |
| 2026-05-06 15:53 | 60.47654 | 21.40331 | 17660 ft | 315 kts | 264° |
| 2026-05-06 15:53 | 60.47434 | 21.35942 | 18374 ft | 317 kts | 262° |
| 2026-05-06 15:54 | 60.47109 | 21.31509 | 19011 ft | 318 kts | 259° |
| 2026-05-06 15:54 | 60.46714 | 21.27074 | 19651 ft | 319 kts | 258° |
| 2026-05-06 15:54 | 60.46290 | 21.22639 | 20300 ft | 321 kts | 258° |
| 2026-05-06 15:54 | 60.45864 | 21.18242 | 20935 ft | 322 kts | 258° |
| 2026-05-06 15:55 | 60.45433 | 21.13755 | 21575 ft | 324 kts | 258° |
| 2026-05-06 15:55 | 60.45007 | 21.09257 | 22213 ft | 326 kts | 258° |
| 2026-05-06 15:55 | 60.44585 | 21.04736 | 22850 ft | 327 kts | 258° |
| 2026-05-06 15:55 | 60.44168 | 21.00236 | 23467 ft | 329 kts | 258° |
| 2026-05-06 15:56 | 60.43744 | 20.95652 | 23981 ft | 331 kts | 258° |
| 2026-05-06 15:56 | 60.43319 | 20.91052 | 24485 ft | 332 kts | 258° |
| 2026-05-06 15:56 | 60.42888 | 20.86438 | 24972 ft | 333 kts | 257° |
| 2026-05-06 15:56 | 60.42459 | 20.81869 | 25443 ft | 335 kts | 257° |
| 2026-05-06 15:57 | 60.42023 | 20.77228 | 25910 ft | 336 kts | 257° |
| 2026-05-06 15:57 | 60.41583 | 20.72568 | 26366 ft | 337 kts | 256° |
| 2026-05-06 15:57 | 60.41139 | 20.67895 | 26815 ft | 338 kts | 256° |
| 2026-05-06 15:57 | 60.40696 | 20.63262 | 27245 ft | 340 kts | 256° |
| 2026-05-06 15:58 | 60.40244 | 20.58544 | 27687 ft | 341 kts | 256° |
| 2026-05-06 15:58 | 60.39789 | 20.53809 | 28109 ft | 342 kts | 255° |
| 2026-05-06 15:58 | 60.39339 | 20.49134 | 28515 ft | 344 kts | 255° |
| 2026-05-06 15:58 | 60.38875 | 20.44351 | 28922 ft | 345 kts | 255° |
| 2026-05-06 15:59 | 60.38408 | 20.39570 | 29317 ft | 347 kts | 255° |
| 2026-05-06 15:59 | 60.37944 | 20.34822 | 29695 ft | 348 kts | 255° |
| 2026-05-06 15:59 | 60.37470 | 20.29985 | 30069 ft | 350 kts | 254° |
| 2026-05-06 15:59 | 60.36993 | 20.25140 | 30373 ft | 351 kts | 254° |
| 2026-05-06 16:00 | 60.36519 | 20.20332 | 30652 ft | 353 kts | 254° |
| 2026-05-06 16:00 | 60.36033 | 20.15443 | 30922 ft | 355 kts | 254° |
| 2026-05-06 16:00 | 60.35540 | 20.10519 | 31177 ft | 357 kts | 254° |
| 2026-05-06 16:00 | 60.35050 | 20.05635 | 31436 ft | 359 kts | 254° |
| 2026-05-06 16:01 | 60.34552 | 20.00685 | 31729 ft | 360 kts | 254° |
| 2026-05-06 16:01 | 60.34055 | 19.95732 | 32106 ft | 359 kts | 254° |
| 2026-05-06 16:01 | 60.33556 | 19.90793 | 32474 ft | 358 kts | 254° |
| 2026-05-06 16:01 | 60.33062 | 19.85911 | 32809 ft | 358 kts | 254° |
| 2026-05-06 16:02 | 60.32563 | 19.80998 | 33157 ft | 358 kts | 254° |
| 2026-05-06 16:02 | 60.32058 | 19.76082 | 33510 ft | 357 kts | 254° |
| 2026-05-06 16:02 | 60.31551 | 19.71170 | 33872 ft | 356 kts | 254° |
| 2026-05-06 16:02 | 60.31045 | 19.66274 | 34179 ft | 356 kts | 254° |
| 2026-05-06 16:03 | 60.30536 | 19.61370 | 34410 ft | 358 kts | 254° |
| 2026-05-06 16:03 | 60.30029 | 19.56510 | 34620 ft | 359 kts | 254° |
| 2026-05-06 16:03 | 60.29509 | 19.51538 | 34810 ft | 361 kts | 255° |
| 2026-05-06 16:03 | 60.28988 | 19.46564 | 35009 ft | 363 kts | 255° |
| 2026-05-06 16:04 | 60.28470 | 19.41626 | 35197 ft | 365 kts | 255° |
| 2026-05-06 16:04 | 60.27941 | 19.36610 | 35391 ft | 366 kts | 255° |
| 2026-05-06 16:04 | 60.27406 | 19.31555 | 35575 ft | 368 kts | 255° |
| 2026-05-06 16:04 | 60.26868 | 19.26493 | 35757 ft | 370 kts | 255° |
| 2026-05-06 16:05 | 60.26328 | 19.21481 | 35933 ft | 371 kts | 255° |
| 2026-05-06 16:05 | 60.25777 | 19.16395 | 36111 ft | 373 kts | 255° |
| 2026-05-06 16:05 | 60.25249 | 19.11262 | 36299 ft | 375 kts | 259° |
| 2026-05-06 16:05 | 60.24995 | 19.06013 | 36471 ft | 377 kts | 262° |
| 2026-05-06 16:06 | 60.24782 | 19.00732 | 36651 ft | 379 kts | 262° |
| 2026-05-06 16:06 | 60.24567 | 18.95438 | 36832 ft | 380 kts | 262° |
| 2026-05-06 16:06 | 60.24350 | 18.90189 | 37004 ft | 381 kts | 262° |
| 2026-05-06 16:06 | 60.24123 | 18.84854 | 37172 ft | 382 kts | 262° |
| 2026-05-06 16:07 | 60.23895 | 18.79570 | 37315 ft | 383 kts | 262° |
| 2026-05-06 16:07 | 60.23664 | 18.74214 | 37479 ft | 384 kts | 262° |
| 2026-05-06 16:07 | 60.23430 | 18.68832 | 37633 ft | 386 kts | 263° |
| 2026-05-06 16:07 | 60.23194 | 18.63450 | 37785 ft | 387 kts | 263° |
| 2026-05-06 16:08 | 60.23035 | 18.59874 | 37898 ft | 387 kts | 263° |
| 2026-05-06 16:08 | 60.22710 | 18.52688 | 38003 ft | 389 kts | 263° |
| 2026-05-06 16:08 | 60.22292 | 18.43653 | 38001 ft | 389 kts | 262° |
| 2026-05-06 16:09 | 60.21786 | 18.32847 | 38001 ft | 390 kts | 263° |
| 2026-05-06 16:09 | 60.21279 | 18.21977 | 37993 ft | 390 kts | 263° |
| 2026-05-06 16:10 | 60.20769 | 18.11162 | 37995 ft | 390 kts | 262° |
| 2026-05-06 16:10 | 60.20237 | 18.00269 | 37995 ft | 391 kts | 262° |
| 2026-05-06 16:11 | 60.19694 | 17.89445 | 37988 ft | 391 kts | 262° |
| 2026-05-06 16:11 | 60.19136 | 17.78560 | 37988 ft | 391 kts | 262° |
| 2026-05-06 16:12 | 60.18575 | 17.67714 | 37992 ft | 391 kts | 262° |
| 2026-05-06 16:12 | 60.18006 | 17.56798 | 37992 ft | 392 kts | 262° |
| 2026-05-06 16:13 | 60.17433 | 17.45965 | 37992 ft | 392 kts | 262° |
| 2026-05-06 16:13 | 60.16849 | 17.35053 | 37995 ft | 392 kts | 262° |
| 2026-05-06 16:14 | 60.16259 | 17.24230 | 37993 ft | 391 kts | 262° |
| 2026-05-06 16:14 | 60.15652 | 17.13339 | 37995 ft | 392 kts | 262° |
| 2026-05-06 16:15 | 60.15036 | 17.02518 | 37989 ft | 391 kts | 262° |
| 2026-05-06 16:15 | 60.14411 | 16.91641 | 37991 ft | 392 kts | 262° |
| 2026-05-06 16:16 | 60.13785 | 16.80824 | 37991 ft | 392 kts | 262° |
| 2026-05-06 16:16 | 60.13143 | 16.69934 | 37987 ft | 392 kts | 261° |
| 2026-05-06 16:17 | 60.12493 | 16.59107 | 37988 ft | 393 kts | 261° |
| 2026-05-06 16:17 | 60.11828 | 16.48203 | 37992 ft | 393 kts | 261° |
| 2026-05-06 16:18 | 60.11165 | 16.37379 | 37987 ft | 393 kts | 261° |
| 2026-05-06 16:18 | 60.10495 | 16.26488 | 37975 ft | 393 kts | 261° |
| 2026-05-06 16:19 | 60.09819 | 16.15667 | 37972 ft | 393 kts | 261° |
| 2026-05-06 16:19 | 60.09124 | 16.04793 | 37968 ft | 393 kts | 261° |
| 2026-05-06 16:20 | 60.08410 | 15.93922 | 37970 ft | 393 kts | 261° |
| 2026-05-06 16:20 | 60.07692 | 15.83107 | 37971 ft | 394 kts | 261° |
| 2026-05-06 16:21 | 60.06974 | 15.72223 | 37965 ft | 394 kts | 261° |
| 2026-05-06 16:21 | 60.06248 | 15.61406 | 37969 ft | 394 kts | 261° |
| 2026-05-06 16:22 | 60.05499 | 15.50515 | 37965 ft | 394 kts | 261° |
| 2026-05-06 16:22 | 60.04752 | 15.39702 | 37961 ft | 394 kts | 261° |
| 2026-05-06 16:23 | 60.03994 | 15.28808 | 37960 ft | 394 kts | 261° |
| 2026-05-06 16:23 | 60.03224 | 15.17998 | 37959 ft | 394 kts | 260° |
| 2026-05-06 16:24 | 60.02452 | 15.07136 | 37960 ft | 394 kts | 260° |
| 2026-05-06 16:24 | 60.01670 | 14.96336 | 37963 ft | 394 kts | 260° |
| 2026-05-06 16:25 | 60.00865 | 14.85474 | 37959 ft | 394 kts | 260° |
| 2026-05-06 16:25 | 60.00065 | 14.74666 | 37962 ft | 395 kts | 260° |
| 2026-05-06 16:26 | 59.99245 | 14.63776 | 37961 ft | 395 kts | 260° |
| 2026-05-06 16:26 | 59.98420 | 14.52959 | 37965 ft | 395 kts | 260° |
| 2026-05-06 16:27 | 59.97590 | 14.42078 | 37971 ft | 396 kts | 260° |
| 2026-05-06 16:27 | 59.96750 | 14.31217 | 37965 ft | 396 kts | 260° |
| 2026-05-06 16:28 | 59.95897 | 14.20413 | 37966 ft | 395 kts | 259° |
| 2026-05-06 16:28 | 59.95035 | 14.09576 | 37965 ft | 395 kts | 259° |
| 2026-05-06 16:29 | 59.94172 | 13.98777 | 37959 ft | 394 kts | 259° |
| 2026-05-06 16:29 | 59.93306 | 13.88046 | 37943 ft | 394 kts | 259° |
| 2026-05-06 16:30 | 59.92566 | 13.78983 | 37941 ft | 394 kts | 259° |
| 2026-05-06 16:30 | 59.91521 | 13.66434 | 37932 ft | 394 kts | 259° |
| 2026-05-06 16:31 | 59.90618 | 13.55707 | 37936 ft | 395 kts | 259° |
| 2026-05-06 16:31 | 59.89708 | 13.44918 | 37931 ft | 394 kts | 259° |
| 2026-05-06 16:32 | 59.88792 | 13.34197 | 37935 ft | 395 kts | 259° |
| 2026-05-06 16:32 | 59.87860 | 13.23393 | 37939 ft | 395 kts | 259° |
| 2026-05-06 16:33 | 59.86927 | 13.12660 | 37929 ft | 395 kts | 259° |
| 2026-05-06 16:34 | 59.85502 | 12.96469 | 37935 ft | 395 kts | 259° |
| 2026-05-06 16:34 | 59.84542 | 12.85745 | 37934 ft | 395 kts | 259° |
| 2026-05-06 16:35 | 59.83575 | 12.74944 | 37931 ft | 396 kts | 259° |
| 2026-05-06 16:35 | 59.82603 | 12.64240 | 37927 ft | 396 kts | 259° |
| 2026-05-06 16:36 | 59.81522 | 12.53474 | 37930 ft | 396 kts | 256° |
| 2026-05-06 16:36 | 59.80165 | 12.42903 | 37933 ft | 396 kts | 255° |
| 2026-05-06 16:37 | 59.78736 | 12.32381 | 37926 ft | 396 kts | 255° |
| 2026-05-06 16:37 | 59.77335 | 12.21797 | 37925 ft | 396 kts | 256° |
| 2026-05-06 16:38 | 59.75970 | 12.11223 | 37929 ft | 396 kts | 255° |
| 2026-05-06 16:38 | 59.74589 | 12.00636 | 37936 ft | 396 kts | 255° |
| 2026-05-06 16:39 | 59.73206 | 11.90106 | 37936 ft | 396 kts | 255° |
| 2026-05-06 16:39 | 59.71801 | 11.79528 | 37933 ft | 396 kts | 255° |
| 2026-05-06 16:40 | 59.70392 | 11.68969 | 37936 ft | 396 kts | 255° |
| 2026-05-06 16:40 | 59.68977 | 11.58457 | 37941 ft | 396 kts | 255° |
| 2026-05-06 16:41 | 59.67558 | 11.47946 | 37937 ft | 396 kts | 255° |
| 2026-05-06 16:41 | 59.66121 | 11.37396 | 37936 ft | 396 kts | 255° |
| 2026-05-06 16:42 | 59.64681 | 11.26935 | 37939 ft | 396 kts | 255° |
| 2026-05-06 16:42 | 59.63223 | 11.16431 | 37949 ft | 396 kts | 255° |
| 2026-05-06 16:43 | 59.61764 | 11.05928 | 37948 ft | 396 kts | 255° |
| 2026-05-06 16:43 | 59.60300 | 10.95436 | 37955 ft | 396 kts | 255° |
| 2026-05-06 16:44 | 59.58831 | 10.85021 | 37950 ft | 395 kts | 255° |
| 2026-05-06 16:44 | 59.57353 | 10.74561 | 37952 ft | 395 kts | 255° |
| 2026-05-06 16:45 | 59.55878 | 10.64177 | 37958 ft | 395 kts | 255° |
| 2026-05-06 16:45 | 59.54369 | 10.53736 | 37946 ft | 395 kts | 254° |
| 2026-05-06 16:46 | 59.52863 | 10.43356 | 37945 ft | 395 kts | 254° |
| 2026-05-06 16:46 | 59.51360 | 10.32992 | 37940 ft | 395 kts | 254° |
| 2026-05-06 16:47 | 59.49843 | 10.22577 | 37939 ft | 395 kts | 254° |
| 2026-05-06 16:47 | 59.48308 | 10.12175 | 37935 ft | 395 kts | 254° |
| 2026-05-06 16:48 | 59.46774 | 10.01845 | 37933 ft | 395 kts | 254° |
| 2026-05-06 16:48 | 59.45226 | 9.91454 | 37939 ft | 395 kts | 254° |
| 2026-05-06 16:49 | 59.43674 | 9.81140 | 37940 ft | 395 kts | 254° |
| 2026-05-06 16:49 | 59.42110 | 9.70786 | 37934 ft | 395 kts | 254° |
| 2026-05-06 16:50 | 59.40552 | 9.60509 | 37939 ft | 395 kts | 254° |
| 2026-05-06 16:50 | 59.38974 | 9.50183 | 37938 ft | 395 kts | 254° |
| 2026-05-06 16:51 | 59.37378 | 9.39857 | 37945 ft | 394 kts | 254° |
| 2026-05-06 16:51 | 59.35787 | 9.29600 | 37945 ft | 394 kts | 254° |
| 2026-05-06 16:52 | 59.34200 | 9.19373 | 37945 ft | 393 kts | 254° |
| 2026-05-06 16:52 | 59.32592 | 9.09142 | 37798 ft | 393 kts | 254° |
| 2026-05-06 16:52 | 59.31787 | 9.04017 | 37547 ft | 392 kts | 254° |
| 2026-05-06 16:53 | 59.31004 | 8.98988 | 37304 ft | 390 kts | 254° |
| 2026-05-06 16:53 | 59.30208 | 8.93901 | 37014 ft | 390 kts | 254° |
| 2026-05-06 16:53 | 59.29409 | 8.88814 | 36764 ft | 389 kts | 254° |
| 2026-05-06 16:53 | 59.28607 | 8.83744 | 36528 ft | 388 kts | 254° |
| 2026-05-06 16:54 | 59.27800 | 8.78727 | 36196 ft | 384 kts | 253° |
| 2026-05-06 16:54 | 59.26997 | 8.73812 | 35612 ft | 382 kts | 253° |
| 2026-05-06 16:54 | 59.26197 | 8.68892 | 35107 ft | 377 kts | 254° |
| 2026-05-06 16:54 | 59.25416 | 8.64018 | 34644 ft | 372 kts | 254° |
| 2026-05-06 16:55 | 59.24646 | 8.59218 | 34219 ft | 366 kts | 254° |
| 2026-05-06 16:55 | 59.23901 | 8.54579 | 33821 ft | 360 kts | 254° |
| 2026-05-06 16:55 | 59.23155 | 8.49951 | 33299 ft | 355 kts | 254° |
| 2026-05-06 16:55 | 59.22409 | 8.45348 | 32652 ft | 354 kts | 255° |
| 2026-05-06 16:56 | 59.21664 | 8.40785 | 32071 ft | 351 kts | 255° |
| 2026-05-06 16:56 | 59.20931 | 8.36320 | 31543 ft | 348 kts | 255° |
| 2026-05-06 16:56 | 59.20192 | 8.31857 | 31052 ft | 343 kts | 255° |
| 2026-05-06 16:56 | 59.19459 | 8.27450 | 30622 ft | 338 kts | 255° |
| 2026-05-06 16:57 | 59.18751 | 8.23114 | 30253 ft | 331 kts | 255° |
| 2026-05-06 16:57 | 59.18065 | 8.18926 | 29869 ft | 326 kts | 255° |
| 2026-05-06 16:57 | 59.17373 | 8.14742 | 29434 ft | 323 kts | 255° |
| 2026-05-06 16:57 | 59.16675 | 8.10580 | 28953 ft | 322 kts | 255° |
| 2026-05-06 16:58 | 59.15976 | 8.06428 | 28446 ft | 322 kts | 255° |
| 2026-05-06 16:58 | 59.15278 | 8.02289 | 27965 ft | 320 kts | 255° |
| 2026-05-06 16:58 | 59.14596 | 7.98221 | 27537 ft | 319 kts | 255° |
| 2026-05-06 16:58 | 59.13914 | 7.94115 | 27131 ft | 316 kts | 256° |
| 2026-05-06 16:59 | 59.13242 | 7.90045 | 26720 ft | 314 kts | 255° |
| 2026-05-06 16:59 | 59.12576 | 7.86040 | 26291 ft | 313 kts | 255° |
| 2026-05-06 16:59 | 59.11898 | 7.81997 | 25802 ft | 314 kts | 255° |
| 2026-05-06 16:59 | 59.11218 | 7.77942 | 25337 ft | 315 kts | 255° |
| 2026-05-06 17:00 | 59.10487 | 7.73873 | 24590 ft | 322 kts | 254° |
| 2026-05-06 17:00 | 59.09711 | 7.69777 | 24112 ft | 321 kts | 253° |
| 2026-05-06 17:00 | 59.08930 | 7.65775 | 23746 ft | 318 kts | 253° |
| 2026-05-06 17:00 | 59.08148 | 7.61765 | 23369 ft | 314 kts | 253° |
| 2026-05-06 17:01 | 59.07376 | 7.57812 | 22986 ft | 311 kts | 253° |
| 2026-05-06 17:01 | 59.06626 | 7.53952 | 22601 ft | 306 kts | 253° |
| 2026-05-06 17:01 | 59.05880 | 7.50093 | 22242 ft | 302 kts | 253° |
| 2026-05-06 17:01 | 59.05148 | 7.46290 | 21897 ft | 298 kts | 253° |
| 2026-05-06 17:02 | 59.04427 | 7.42526 | 21576 ft | 294 kts | 253° |
| 2026-05-06 17:02 | 59.03703 | 7.38793 | 21238 ft | 298 kts | 253° |
| 2026-05-06 17:02 | 59.02971 | 7.35068 | 20922 ft | 299 kts | 253° |
| 2026-05-06 17:02 | 59.02228 | 7.31259 | 20527 ft | 301 kts | 253° |
| 2026-05-06 17:03 | 59.01485 | 7.27425 | 20096 ft | 305 kts | 253° |
| 2026-05-06 17:03 | 59.00739 | 7.23547 | 19669 ft | 307 kts | 253° |
| 2026-05-06 17:03 | 58.99992 | 7.19682 | 19254 ft | 309 kts | 253° |
| 2026-05-06 17:03 | 58.99217 | 7.15787 | 18848 ft | 308 kts | 252° |
| 2026-05-06 17:04 | 58.98432 | 7.11948 | 18413 ft | 305 kts | 252° |
| 2026-05-06 17:04 | 58.97658 | 7.08130 | 17854 ft | 304 kts | 252° |
| 2026-05-06 17:04 | 58.96893 | 7.04315 | 17376 ft | 302 kts | 252° |
| 2026-05-06 17:04 | 58.96142 | 7.00549 | 16967 ft | 304 kts | 252° |
| 2026-05-06 17:05 | 58.95383 | 6.96720 | 16581 ft | 305 kts | 252° |
| 2026-05-06 17:05 | 58.94626 | 6.92867 | 16212 ft | 306 kts | 252° |
| 2026-05-06 17:05 | 58.93870 | 6.88997 | 15846 ft | 306 kts | 252° |
| 2026-05-06 17:05 | 58.93133 | 6.85196 | 15503 ft | 306 kts | 252° |
| 2026-05-06 17:06 | 58.92391 | 6.81346 | 15176 ft | 305 kts | 252° |
| 2026-05-06 17:06 | 58.91632 | 6.77456 | 14652 ft | 311 kts | 251° |
| 2026-05-06 17:06 | 58.90840 | 6.73566 | 14117 ft | 316 kts | 251° |
| 2026-05-06 17:06 | 58.90012 | 6.69613 | 13611 ft | 315 kts | 250° |
| 2026-05-06 17:07 | 58.89191 | 6.65703 | 13155 ft | 312 kts | 251° |
| 2026-05-06 17:07 | 58.88392 | 6.61825 | 12743 ft | 308 kts | 251° |
| 2026-05-06 17:07 | 58.87623 | 6.58026 | 12317 ft | 306 kts | 251° |
| 2026-05-06 17:07 | 58.86850 | 6.54173 | 11829 ft | 307 kts | 251° |
| 2026-05-06 17:08 | 58.86073 | 6.50351 | 11481 ft | 303 kts | 251° |
| 2026-05-06 17:08 | 58.85300 | 6.46563 | 11066 ft | 302 kts | 251° |
| 2026-05-06 17:08 | 58.84535 | 6.42784 | 10631 ft | 302 kts | 251° |
| 2026-05-06 17:08 | 58.83781 | 6.39043 | 10217 ft | 301 kts | 251° |
| 2026-05-06 17:09 | 58.83015 | 6.35309 | 9897 ft | 295 kts | 251° |
| 2026-05-06 17:09 | 58.82261 | 6.31662 | 9579 ft | 289 kts | 251° |
| 2026-05-06 17:09 | 58.81523 | 6.28150 | 9312 ft | 282 kts | 251° |
| 2026-05-06 17:09 | 58.80794 | 6.24689 | 9046 ft | 274 kts | 251° |
| 2026-05-06 17:10 | 58.80096 | 6.21301 | 8750 ft | 269 kts | 251° |
| 2026-05-06 17:10 | 58.79414 | 6.17970 | 8424 ft | 265 kts | 251° |
| 2026-05-06 17:10 | 58.78738 | 6.14682 | 8116 ft | 263 kts | 252° |
| 2026-05-06 17:10 | 58.78077 | 6.11450 | 7841 ft | 260 kts | 252° |
| 2026-05-06 17:11 | 58.77412 | 6.08193 | 7563 ft | 261 kts | 252° |
| 2026-05-06 17:11 | 58.76743 | 6.04939 | 7288 ft | 260 kts | 251° |
| 2026-05-06 17:11 | 58.76070 | 6.01704 | 6965 ft | 259 kts | 251° |
| 2026-05-06 17:11 | 58.75404 | 5.98514 | 6636 ft | 260 kts | 251° |
| 2026-05-06 17:12 | 58.74733 | 5.95300 | 6259 ft | 258 kts | 251° |
| 2026-05-06 17:12 | 58.74059 | 5.92092 | 5794 ft | 258 kts | 251° |
| 2026-05-06 17:12 | 58.73384 | 5.88889 | 5410 ft | 255 kts | 251° |
| 2026-05-06 17:12 | 58.72720 | 5.85765 | 5145 ft | 249 kts | 251° |
| 2026-05-06 17:13 | 58.72076 | 5.82754 | 4865 ft | 243 kts | 251° |
| 2026-05-06 17:13 | 58.71458 | 5.79757 | 4593 ft | 237 kts | 257° |